Time;durP1;ratioP1;P1;durP2;ratioP2;P2;SDS_P1;SDS_P2;PMS_P1;PMS_P2;Temp;Humidity;BMP_temperature;BMP_pressure;BME280_temperature;BME280_humidity;BME280_pressure;Samples;Min_cycle;Max_cycle;Signal;HPM_P1;HPM_P2
2022/09/11 00:01:30;;;;;;;8.93;3.03;;;;;;;15.88;100.00;98613.69;5109004;28;20027;-95
2022/09/11 00:03:56;;;;;;;7.22;2.70;;;;;;;15.83;100.00;98612.97;5111928;28;20103;-94
2022/09/11 00:06:23;;;;;;;9.75;2.75;;;;;;;15.72;100.00;98609.81;5090868;28;20028;-93
2022/09/11 00:08:59;;;;;;;9.00;2.90;;;;;;;15.72;100.00;98604.56;5100940;28;20027;-95
2022/09/11 00:11:31;;;;;;;7.13;2.50;;;;;;;15.83;100.00;98612.97;5090161;28;20353;-94
2022/09/11 00:13:59;;;;;;;6.88;2.42;;;;;;;15.96;100.00;98608.16;5091100;28;20035;-95
2022/09/11 00:16:28;;;;;;;8.63;2.25;;;;;;;15.64;100.00;98603.03;5097325;27;20104;-96
2022/09/11 00:18:56;;;;;;;8.85;2.55;;;;;;;15.52;100.00;98608.69;5096415;28;20027;-96
2022/09/11 00:21:22;;;;;;;6.78;2.70;;;;;;;15.57;100.00;98611.16;5090058;28;20105;-93
2022/09/11 00:23:48;;;;;;;7.78;2.42;;;;;;;15.75;100.00;98607.91;5095731;27;20023;-94
2022/09/11 00:26:15;;;;;;;8.23;2.65;;;;;;;15.78;100.00;98610.47;5094762;28;20023;-94
2022/09/11 00:28:44;;;;;;;7.85;2.20;;;;;;;15.67;100.00;98613.44;5090039;28;20032;-94
2022/09/11 00:31:15;;;;;;;9.15;2.40;;;;;;;15.55;100.00;98605.94;5103572;28;20610;-93
2022/09/11 00:33:42;;;;;;;6.75;2.35;;;;;;;15.61;100.00;98600.47;5111658;28;20030;-96
2022/09/11 00:36:13;;;;;;;7.25;2.33;;;;;;;15.36;100.00;98598.66;5097475;28;20061;-95
2022/09/11 00:38:39;;;;;;;6.55;2.03;;;;;;;15.36;100.00;98596.03;5098348;28;20460;-95
2022/09/11 00:41:11;;;;;;;7.13;2.33;;;;;;;15.18;100.00;98599.19;5095789;28;20035;-94
2022/09/11 00:43:52;;;;;;;7.60;2.20;;;;;;;15.20;100.00;98592.16;5090927;28;20031;-96
2022/09/11 00:46:18;;;;;;;8.35;2.35;;;;;;;15.18;100.00;98594.81;5080762;28;20046;-94
2022/09/11 00:48:48;;;;;;;7.10;2.10;;;;;;;15.05;100.00;98590.84;5109706;28;20126;-94
2022/09/11 00:51:19;;;;;;;5.45;1.90;;;;;;;15.03;100.00;98584.78;5096440;28;20035;-95
2022/09/11 00:53:46;;;;;;;6.22;1.90;;;;;;;14.90;100.00;98579.00;5089556;28;20102;-96
2022/09/11 00:56:12;;;;;;;7.00;2.28;;;;;;;15.07;100.00;98586.38;5084666;28;20023;-93
2022/09/11 00:58:42;;;;;;;6.47;2.13;;;;;;;14.70;100.00;98586.59;5096758;28;20036;-96
2022/09/11 01:01:09;;;;;;;6.80;2.10;;;;;;;14.77;100.00;98575.03;5090014;28;20036;-95
2022/09/11 01:03:35;;;;;;;6.65;1.80;;;;;;;15.07;100.00;98583.75;5095900;28;20044;-94
2022/09/11 01:06:02;;;;;;;7.22;2.17;;;;;;;14.67;100.00;98580.53;5091517;28;20069;-95
2022/09/11 01:08:28;;;;;;;11.60;2.38;;;;;;;14.60;100.00;98580.72;5095658;28;20035;-95
2022/09/11 01:11:26;;;;;;;10.20;2.20;;;;;;;14.86;100.00;98582.63;5097404;27;20114;-94
2022/09/11 01:14:17;;;;;;;8.90;2.42;;;;;;;14.67;100.00;98584.94;5087350;28;20494;-95
2022/09/11 01:17:11;;;;;;;7.00;1.80;;;;;;;14.49;100.00;98581.03;5091048;28;20105;-96
2022/09/11 01:19:59;;;;;;;6.95;2.00;;;;;;;14.29;100.00;98584.19;5087003;27;20027;-94
2022/09/11 01:22:42;;;;;;;7.90;2.22;;;;;;;14.28;100.00;98578.09;5083044;28;20024;-94
2022/09/11 01:25:27;;;;;;;7.35;2.17;;;;;;;14.33;100.00;98575.34;5085097;28;20023;-94
2022/09/11 01:27:52;;;;;;;6.88;2.00;;;;;;;14.29;100.00;98581.56;5095249;28;20122;-94
2022/09/11 01:30:23;;;;;;;6.55;2.20;;;;;;;14.21;100.00;98578.28;5093729;28;20115;-93
2022/09/11 01:32:51;;;;;;;7.55;2.10;;;;;;;14.06;100.00;98577.81;5088612;27;20036;-95
2022/09/11 01:35:23;;;;;;;7.05;2.05;;;;;;;13.79;100.00;98588.09;5093054;28;20483;-95
2022/09/11 01:38:05;;;;;;;9.18;2.08;;;;;;;13.78;100.00;98582.91;5079849;28;20480;-93
2022/09/11 01:40:48;;;;;;;6.85;1.75;;;;;;;13.87;100.00;98589.66;5077428;28;20036;-92
2022/09/11 01:43:20;;;;;;;6.53;2.15;;;;;;;13.62;100.00;98585.88;5084365;28;20042;-94
2022/09/11 01:45:49;;;;;;;6.97;1.95;;;;;;;13.66;100.00;98584.06;5079099;28;20038;-94
2022/09/11 01:48:22;;;;;;;7.20;2.20;;;;;;;13.59;100.00;98580.72;5102160;28;20079;-93
2022/09/11 01:50:50;;;;;;;8.57;2.67;;;;;;;13.61;100.00;98578.94;5079220;28;20115;-93
2022/09/11 01:53:17;;;;;;;8.02;2.50;;;;;;;13.95;100.00;98572.84;5076450;28;20279;-93
2022/09/11 01:55:48;;;;;;;6.93;2.47;;;;;;;13.99;100.00;98573.63;5104490;28;20122;-93
2022/09/11 01:58:35;;;;;;;6.50;2.40;;;;;;;13.91;100.00;98575.59;5076986;28;20042;-93
2022/09/11 02:01:26;;;;;;;6.22;2.20;;;;;;;13.73;100.00;98575.13;5075845;28;20113;-91
2022/09/11 02:04:09;;;;;;;8.85;2.38;;;;;;;13.77;100.00;98575.94;5085075;28;20020;-91
2022/09/11 02:06:50;;;;;;;7.45;2.13;;;;;;;13.63;100.00;98571.88;5083992;28;20044;-92
2022/09/11 02:09:21;;;;;;;8.02;2.35;;;;;;;13.55;100.00;98568.59;5075747;28;20843;-92
2022/09/11 02:11:50;;;;;;;7.40;2.70;;;;;;;13.53;100.00;98574.75;5078108;28;20100;-91
2022/09/11 02:14:45;;;;;;;10.45;2.80;;;;;;;13.58;100.00;98572.88;5081160;28;20040;-92
2022/09/11 02:17:23;;;;;;;7.20;2.55;;;;;;;13.55;100.00;98567.72;5077707;28;20086;-91
2022/09/11 02:19:50;;;;;;;8.23;2.60;;;;;;;13.47;100.00;98567.91;5072975;28;20024;-91
2022/09/11 02:22:16;;;;;;;8.85;2.60;;;;;;;13.49;100.00;98568.75;5081043;28;20027;-92
2022/09/11 02:24:42;;;;;;;8.32;2.35;;;;;;;13.63;100.00;98560.56;5082719;28;20041;-92
2022/09/11 02:27:11;;;;;;;11.13;2.60;;;;;;;13.57;100.00;98555.44;5074306;28;20047;-94
2022/09/11 02:29:38;;;;;;;7.80;2.47;;;;;;;13.65;100.00;98554.38;5075416;28;20437;-94
2022/09/11 02:32:04;;;;;;;9.38;2.55;;;;;;;13.62;100.00;98554.44;5105712;28;20069;-93
2022/09/11 02:34:34;;;;;;;7.22;2.40;;;;;;;13.55;100.00;98552.00;5087535;28;20019;-92
2022/09/11 02:37:34;;;;;;;7.55;2.50;;;;;;;13.53;100.00;98553.78;5109704;28;20031;-93
2022/09/11 02:40:54;;;;;;;9.13;2.95;;;;;;;13.21;100.00;98553.66;5090179;28;20036;-95
2022/09/11 02:43:32;;;;;;;8.90;2.58;;;;;;;13.38;100.00;98550.66;5043262;28;20043;-93
2022/09/11 02:46:18;;;;;;;7.03;2.33;;;;;;;13.37;100.00;98545.47;5025472;28;20517;-93
2022/09/11 02:49:07;;;;;;;7.28;2.67;;;;;;;13.27;100.00;98552.63;5042337;28;20032;-93
2022/09/11 02:51:37;;;;;;;8.70;3.00;;;;;;;13.39;100.00;98551.50;5021037;28;20120;-92
2022/09/11 02:54:14;;;;;;;9.20;3.17;;;;;;;13.31;100.00;98552.53;5022599;28;20052;-95
2022/09/11 02:57:03;;;;;;;7.22;2.70;;;;;;;13.31;100.00;98546.44;5040744;28;20025;-92
2022/09/11 02:59:39;;;;;;;10.90;3.55;;;;;;;13.56;100.00;98551.13;5064388;28;20036;-92
2022/09/11 03:02:11;;;;;;;8.60;3.80;;;;;;;13.65;100.00;98533.41;5062577;28;20036;-93
2022/09/11 03:04:37;;;;;;;11.37;4.37;;;;;;;13.70;100.00;98540.28;5041976;28;20042;-93
2022/09/11 03:07:03;;;;;;;9.13;4.20;;;;;;;13.48;100.00;98546.06;5067477;28;20024;-93
2022/09/11 03:09:28;;;;;;;10.85;4.50;;;;;;;13.42;100.00;98544.44;5064970;28;20119;-94
2022/09/11 03:11:54;;;;;;;12.80;4.47;;;;;;;13.46;100.00;98546.09;5046209;28;20131;-94
2022/09/11 03:14:26;;;;;;;9.20;4.00;;;;;;;13.35;100.00;98539.34;5047801;28;20039;-94
2022/09/11 03:16:51;;;;;;;9.20;4.28;;;;;;;13.20;100.00;98541.44;5062051;28;20073;-94
2022/09/11 03:19:17;;;;;;;9.27;4.38;;;;;;;13.43;100.00;98543.56;5099104;28;20053;-94
2022/09/11 03:21:43;;;;;;;11.35;4.40;;;;;;;13.27;100.00;98537.78;5104426;28;20023;-95
2022/09/11 03:24:09;;;;;;;8.65;4.05;;;;;;;13.48;100.00;98543.44;5098124;28;20022;-93
2022/09/11 03:26:36;;;;;;;11.32;5.47;;;;;;;13.36;100.00;98541.09;5103773;28;20024;-94
2022/09/11 03:29:02;;;;;;;12.98;5.28;;;;;;;13.37;100.00;98537.59;5103891;28;20038;-94
2022/09/11 03:31:28;;;;;;;14.10;5.63;;;;;;;13.25;100.00;98530.84;5106924;28;20541;-95
2022/09/11 03:33:54;;;;;;;12.80;6.18;;;;;;;13.27;100.00;98531.69;5101702;28;20043;-95
2022/09/11 03:36:21;;;;;;;14.77;6.25;;;;;;;13.47;100.00;98534.72;5101650;28;20550;-94
2022/09/11 03:38:47;;;;;;;12.13;5.80;;;;;;;13.38;100.00;98529.69;5102431;28;20082;-94
2022/09/11 03:41:13;;;;;;;12.43;5.10;;;;;;;13.31;100.00;98533.34;5107685;28;20107;-95
2022/09/11 03:43:39;;;;;;;13.45;5.95;;;;;;;12.93;100.00;98525.47;5102785;27;20509;-94
2022/09/11 03:48:41;;;;;;;13.82;5.55;;;;;;;13.14;100.00;98513.63;5080485;27;20382;-94
2022/09/11 03:51:10;;;;;;;12.50;5.03;;;;;;;13.01;100.00;98512.19;5066781;28;20051;-94
2022/09/11 03:53:37;;;;;;;11.45;4.93;;;;;;;12.70;100.00;98514.66;5060850;28;20028;-92
2022/09/11 03:56:03;;;;;;;12.10;5.10;;;;;;;12.52;100.00;98501.06;5066036;28;20033;-93
2022/09/11 03:58:32;;;;;;;13.18;5.13;;;;;;;12.76;100.00;98504.03;5069540;28;20480;-94
2022/09/11 04:00:58;;;;;;;12.15;4.82;;;;;;;12.91;100.00;98501.06;5063441;28;20531;-94
2022/09/11 04:03:23;;;;;;;10.13;4.57;;;;;;;13.05;100.00;98499.91;5072690;28;20056;-94
2022/09/11 04:05:58;;;;;;;9.65;4.90;;;;;;;13.09;100.00;98491.94;5059025;28;20032;-95
2022/09/11 04:08:25;;;;;;;15.15;4.80;;;;;;;12.91;100.00;98495.84;5059457;28;20107;-93
2022/09/11 04:10:57;;;;;;;9.40;4.15;;;;;;;12.68;100.00;98495.50;5060485;28;20036;-93
2022/09/11 04:13:28;;;;;;;10.38;4.20;;;;;;;12.47;100.00;98489.84;5075501;28;20029;-94
2022/09/11 04:15:57;;;;;;;13.27;4.03;;;;;;;12.69;100.00;98495.44;5065783;28;20572;-94
2022/09/11 04:18:23;;;;;;;10.50;3.70;;;;;;;12.79;100.00;98488.28;5065932;28;20021;-94
2022/09/11 04:20:48;;;;;;;8.98;3.65;;;;;;;12.42;100.00;98479.47;5063083;28;20024;-93
2022/09/11 04:23:13;;;;;;;8.57;3.42;;;;;;;12.61;100.00;98485.16;5073197;28;20047;-94
2022/09/11 04:26:53;;;;;;;12.27;3.88;;;;;;;12.81;100.00;98474.25;5103880;27;20758;-94
2022/09/11 04:29:20;;;;;;;8.50;3.50;;;;;;;12.90;100.00;98478.44;5065545;28;20033;-93
2022/09/11 04:31:45;;;;;;;9.43;3.42;;;;;;;12.89;100.00;98468.84;5064212;28;20429;-94
2022/09/11 04:34:55;;;;;;;11.00;3.63;;;;;;;12.88;100.00;98472.34;5136981;27;20378;-94
2022/09/11 04:37:21;;;;;;;11.05;3.70;;;;;;;12.68;100.00;98482.41;5115866;27;20046;-94
2022/09/11 04:39:47;;;;;;;10.43;3.53;;;;;;;12.60;100.00;98479.97;5111710;28;20780;-95
2022/09/11 04:42:13;;;;;;;11.43;3.92;;;;;;;12.85;100.00;98476.81;5118549;28;20030;-94
2022/09/11 04:44:41;;;;;;;9.57;3.17;;;;;;;12.78;100.00;98479.56;5124444;28;20126;-94
2022/09/11 04:47:07;;;;;;;8.20;3.28;;;;;;;12.57;100.00;98474.81;5117314;28;20027;-94
2022/09/11 04:49:32;;;;;;;9.57;3.45;;;;;;;12.59;100.00;98475.63;5123179;28;20031;-95
2022/09/11 04:52:04;;;;;;;9.90;3.33;;;;;;;12.51;100.00;98474.94;5121830;28;20379;-94
2022/09/11 04:54:32;;;;;;;8.35;3.28;;;;;;;12.41;100.00;98476.88;5110770;28;20102;-95
2022/09/11 04:56:58;;;;;;;9.18;3.55;;;;;;;12.49;100.00;98474.13;5124619;28;20736;-93
2022/09/11 04:59:24;;;;;;;9.13;3.67;;;;;;;12.62;100.00;98472.94;5127207;27;20118;-96
2022/09/11 05:01:50;;;;;;;10.23;3.78;;;;;;;12.71;100.00;98479.75;5115010;27;20035;-94
2022/09/11 05:06:29;;;;;;;10.88;3.80;;;;;;;12.91;100.00;98477.50;5102581;27;20412;-96
2022/09/11 05:08:55;;;;;;;11.48;3.85;;;;;;;13.11;100.00;98478.81;5087661;28;20431;-93
2022/09/11 05:11:21;;;;;;;14.20;5.18;;;;;;;12.98;100.00;98481.75;5074251;28;20107;-92
2022/09/11 05:13:47;;;;;;;13.00;5.68;;;;;;;13.18;100.00;98482.13;5084830;28;20547;-94
2022/09/11 05:16:15;;;;;;;23.80;7.53;;;;;;;13.31;100.00;98476.56;5095599;28;20028;-93
2022/09/11 05:18:44;;;;;;;22.92;8.48;;;;;;;13.46;100.00;98477.97;5096325;28;20031;-93
2022/09/11 05:21:14;;;;;;;31.02;10.98;;;;;;;13.52;100.00;98476.97;5075241;28;20028;-93
2022/09/11 05:23:40;;;;;;;33.30;9.30;;;;;;;13.51;100.00;98470.00;5077955;28;20028;-93
2022/09/11 05:26:13;;;;;;;38.75;10.40;;;;;;;13.76;100.00;98466.75;5075445;28;20035;-93
2022/09/11 05:28:38;;;;;;;34.70;9.93;;;;;;;13.70;100.00;98474.78;5091095;28;20470;-92
2022/09/11 05:31:10;;;;;;;96.65;12.52;;;;;;;13.59;100.00;98472.44;5089427;28;20028;-96
2022/09/11 05:33:35;;;;;;;63.13;11.95;;;;;;;13.65;100.00;98477.50;5095245;28;20028;-93
2022/09/11 05:36:05;;;;;;;91.53;13.40;;;;;;;13.46;100.00;98482.38;5088660;28;20399;-94
2022/09/11 05:38:30;;;;;;;103.43;12.38;;;;;;;13.38;100.00;98476.47;5098189;27;20035;-95
2022/09/11 05:40:56;;;;;;;99.55;13.93;;;;;;;13.38;100.00;98479.94;5075347;28;20031;-94
2022/09/11 05:43:21;;;;;;;111.00;11.68;;;;;;;13.11;100.00;98486.66;5087392;28;20028;-94
2022/09/11 05:45:57;;;;;;;83.03;9.38;;;;;;;13.10;100.00;98483.19;5088754;28;20024;-95
2022/09/11 05:48:24;;;;;;;52.67;8.63;;;;;;;13.18;100.00;98483.03;5077595;28;20040;-95
2022/09/11 05:51:00;;;;;;;31.30;5.97;;;;;;;13.46;100.00;98477.13;5076989;28;20766;-94
2022/09/11 05:53:27;;;;;;;64.18;9.05;;;;;;;13.61;100.00;98473.25;5082199;28;20032;-94
2022/09/11 05:55:54;;;;;;;69.20;12.00;;;;;;;13.72;100.00;98479.06;5089024;28;20023;-95
2022/09/11 05:59:26;;;;;;;125.78;11.88;;;;;;;13.57;100.00;98469.84;5102760;27;20384;-93
2022/09/11 06:01:51;;;;;;;77.18;7.30;;;;;;;13.63;100.00;98467.06;5099895;28;20039;-94
2022/09/11 06:04:17;;;;;;;54.05;6.80;;;;;;;13.66;100.00;98474.84;5084157;28;20571;-92
2022/09/11 06:06:46;;;;;;;19.15;4.88;;;;;;;13.54;100.00;98472.56;5082614;28;20060;-92
2022/09/11 06:09:12;;;;;;;30.08;5.65;;;;;;;13.65;100.00;98475.75;5094133;28;20024;-95
2022/09/11 06:11:37;;;;;;;40.47;6.43;;;;;;;13.90;100.00;98476.84;5090288;28;20016;-92
2022/09/11 06:14:03;;;;;;;22.98;5.38;;;;;;;13.62;100.00;98485.44;5081677;28;20106;-91
2022/09/11 06:18:06;;;;;;;32.25;5.72;;;;;;;13.45;100.00;98485.88;5098362;27;20750;-92
2022/09/11 06:20:32;;;;;;;42.80;5.60;;;;;;;13.35;100.00;98486.97;5097361;28;20403;-92
2022/09/11 06:22:58;;;;;;;60.63;9.40;;;;;;;13.32;100.00;98482.69;5095760;28;20032;-92
2022/09/11 06:25:24;;;;;;;55.13;8.68;;;;;;;13.22;100.00;98482.06;5094577;28;21038;-91
2022/09/11 06:27:50;;;;;;;75.28;9.57;;;;;;;12.98;100.00;98479.13;5095787;28;20637;-93
2022/09/11 06:30:15;;;;;;;98.43;10.45;;;;;;;13.12;100.00;98476.19;5096651;28;20032;-92
2022/09/11 06:32:41;;;;;;;113.50;10.00;;;;;;;13.62;100.00;98481.06;5114442;28;20098;-93
2022/09/11 06:35:07;;;;;;;73.68;8.90;;;;;;;13.85;100.00;98479.63;5093359;28;20088;-93
2022/09/11 06:37:32;;;;;;;91.13;9.77;;;;;;;13.91;100.00;98486.44;5095030;28;20040;-92
2022/09/11 06:39:57;;;;;;;61.78;8.20;;;;;;;13.78;100.00;98483.31;5092041;28;20028;-93
2022/09/11 06:42:23;;;;;;;56.10;9.13;;;;;;;13.74;100.00;98486.91;5095961;28;20020;-92
2022/09/11 06:44:50;;;;;;;61.22;8.05;;;;;;;13.75;100.00;98481.63;5099526;28;20547;-93
2022/09/11 06:47:16;;;;;;;49.28;5.95;;;;;;;13.99;100.00;98482.72;5109423;27;20058;-93
2022/09/11 06:49:41;;;;;;;64.90;7.95;;;;;;;14.43;100.00;98492.00;5100072;28;20027;-92
2022/09/11 06:52:08;;;;;;;82.80;10.07;;;;;;;14.15;100.00;98491.03;5087014;28;20029;-92
2022/09/11 06:55:04;;;;;;;117.65;12.10;;;;;;;14.12;100.00;98485.84;5089152;27;20406;-92
2022/09/11 06:58:44;;;;;;;110.88;11.35;;;;;;;14.34;100.00;98483.47;5114693;27;20398;-92
2022/09/11 07:01:14;;;;;;;244.60;18.23;;;;;;;14.19;100.00;98490.94;5080424;28;20044;-93
2022/09/11 07:05:47;;;;;;;113.20;9.40;;;;;;;14.19;100.00;98489.16;5088749;27;20498;-93
2022/09/11 07:08:55;;;;;;;55.85;6.63;;;;;;;14.31;100.00;98494.06;5104923;27;20431;-94
2022/09/11 07:11:21;;;;;;;44.30;7.15;;;;;;;14.50;100.00;98488.28;5057735;28;20032;-94
2022/09/11 07:13:47;;;;;;;84.28;10.05;;;;;;;14.44;100.00;98497.19;5056505;28;20256;-93
2022/09/11 07:16:12;;;;;;;126.38;14.40;;;;;;;14.71;100.00;98493.84;5058202;28;20480;-93
2022/09/11 07:18:40;;;;;;;72.55;8.30;;;;;;;14.74;100.00;98489.38;5066484;28;20077;-94
2022/09/11 07:21:15;;;;;;;47.05;6.07;;;;;;;14.44;100.00;98491.09;5057240;28;20028;-94
2022/09/11 07:23:42;;;;;;;43.08;6.32;;;;;;;14.45;100.00;98487.56;5060773;28;20038;-94
2022/09/11 07:28:01;;;;;;;28.23;5.55;;;;;;;14.62;100.00;98487.06;5058830;27;20405;-92
2022/09/11 07:30:27;;;;;;;9.82;4.00;;;;;;;15.06;100.00;98497.13;5057673;28;20432;-92
2022/09/11 07:32:53;;;;;;;23.00;5.50;;;;;;;15.13;100.00;98499.53;5053520;28;20123;-91
2022/09/11 07:40:43;;;;;;;11.55;5.00;;;;;;;15.07;100.00;98485.72;5127397;27;20401;-95
2022/09/11 07:45:23;;;;;;;13.43;5.03;;;;;;;15.36;100.00;98485.66;5112055;27;20387;-93
2022/09/11 07:47:49;;;;;;;10.82;4.88;;;;;;;15.37;100.00;98489.13;5087468;28;20605;-93
2022/09/11 07:50:14;;;;;;;12.55;5.00;;;;;;;15.35;100.00;98489.19;5087712;28;20070;-94
2022/09/11 07:52:41;;;;;;;12.38;5.75;;;;;;;15.64;100.00;98482.09;5090963;28;20559;-94
2022/09/11 07:55:07;;;;;;;11.65;5.20;;;;;;;15.45;100.00;98479.22;5091259;28;20034;-94
2022/09/11 07:57:33;;;;;;;11.95;5.40;;;;;;;15.49;100.00;98469.47;5087274;28;20032;-95
2022/09/11 07:59:59;;;;;;;13.52;5.78;;;;;;;15.62;100.00;98472.56;5086585;28;20388;-95
2022/09/11 08:04:45;;;;;;;12.57;6.28;;;;;;;15.70;100.00;98468.75;5110851;27;20523;-93
2022/09/11 08:07:21;;;;;;;13.55;5.82;;;;;;;15.79;100.00;98474.59;5086079;28;20038;-95
2022/09/11 08:11:16;;;;;;;13.07;6.25;;;;;;;15.58;100.00;98476.19;5086643;27;1463022;-93
2022/09/11 08:13:46;;;;;;;15.50;6.80;;;;;;;15.35;100.00;98472.53;5112814;28;20119;-92
2022/09/11 08:16:11;;;;;;;15.82;6.90;;;;;;;15.66;100.00;98471.53;5117216;28;20031;-92
2022/09/11 08:19:23;;;;;;;18.08;8.00;;;;;;;15.59;100.00;98475.25;5130886;27;20397;-93
2022/09/11 08:21:50;;;;;;;13.73;7.35;;;;;;;15.45;100.00;98473.09;5114942;28;20481;-93
2022/09/11 08:24:58;;;;;;;15.10;7.78;;;;;;;15.46;100.00;98477.44;5082277;27;20691;-93
2022/09/11 08:27:23;;;;;;;16.48;7.10;;;;;;;15.81;100.00;98468.41;5063552;28;20036;-92
2022/09/11 08:29:49;;;;;;;15.73;7.40;;;;;;;15.20;100.00;98473.94;5100263;27;20035;-93
2022/09/11 08:32:15;;;;;;;15.27;7.22;;;;;;;15.69;100.00;98468.78;5064649;28;20753;-93
2022/09/11 08:37:10;;;;;;;14.77;7.25;;;;;;;16.12;100.00;98469.94;5099141;27;22371;-92
2022/09/11 08:40:54;;;;;;;14.40;7.32;;;;;;;16.09;100.00;98469.19;5081502;27;20436;-93
2022/09/11 08:43:25;;;;;;;16.33;7.95;;;;;;;16.25;100.00;98464.22;5073558;28;20036;-92
2022/09/11 08:45:57;;;;;;;15.77;6.75;;;;;;;15.92;100.00;98472.41;5085073;28;20139;-92
2022/09/11 08:49:22;;;;;;;15.05;6.68;;;;;;;15.70;100.00;98474.00;5075706;27;20860;-92
2022/09/11 08:51:50;;;;;;;15.02;6.88;;;;;;;15.85;100.00;98480.53;5053987;28;20037;-92
2022/09/11 08:54:30;;;;;;;18.42;7.57;;;;;;;15.84;100.00;98484.06;5048054;28;20117;-92
2022/09/11 08:57:15;;;;;;;15.77;7.43;;;;;;;16.18;100.00;98479.38;5058849;28;20032;-92
2022/09/11 09:00:06;;;;;;;15.75;7.65;;;;;;;16.29;100.00;98479.00;5101729;27;20822;-92
2022/09/11 09:02:37;;;;;;;17.52;7.63;;;;;;;16.26;100.00;98485.22;5083818;28;20032;-92
2022/09/11 09:05:36;;;;;;;17.48;7.70;;;;;;;16.34;100.00;98482.31;5080184;28;20068;-94
2022/09/11 09:09:58;;;;;;;19.48;8.43;;;;;;;16.63;100.00;98486.50;5137994;27;20420;-95
2022/09/11 09:13:01;;;;;;;18.60;8.35;;;;;;;16.36;100.00;98480.47;5107989;28;20031;-94
2022/09/11 09:15:37;;;;;;;16.88;7.78;;;;;;;16.37;100.00;98482.19;5109073;27;20074;-95
2022/09/11 09:21:12;;;;;;;17.75;7.90;;;;;;;16.87;100.00;98476.78;5130471;27;20391;-96
2022/09/11 09:26:56;;;;;;;15.75;7.80;;;;;;;16.88;100.00;98486.44;5098413;27;20822;-96
2022/09/11 09:29:41;;;;;;;16.52;7.43;;;;;;;17.25;100.00;98481.47;5160759;27;20403;-96
2022/09/11 09:34:33;;;;;;;17.75;7.63;;;;;;;17.32;100.00;98489.97;5145391;27;20844;-96
2022/09/11 09:37:18;;;;;;;;;;;;;;;17.26;100.00;98491.09;5108905;28;20044;-96
2022/09/11 09:39:46;;;;;;;15.05;6.75;;;;;;;17.27;100.00;98484.03;5106106;28;20261;-96
2022/09/11 09:42:32;;;;;;;18.23;7.07;;;;;;;17.85;100.00;98486.00;5104074;28;20100;-96
2022/09/11 09:45:20;;;;;;;12.50;5.20;;;;;;;17.84;100.00;98490.44;5102188;28;20104;-96
2022/09/11 09:53:59;;;;;;;;;;;;;;;;;;;;;
2022/09/11 10:06:01;;;;;;;12.88;5.63;;;;;;;17.82;100.00;98491.41;5073795;27;20415;-96
2022/09/11 10:08:36;;;;;;;12.60;5.85;;;;;;;17.83;100.00;98490.47;5085466;28;20040;-96
2022/09/11 10:11:11;;;;;;;14.68;6.68;;;;;;;17.85;100.00;98491.28;5085206;28;20093;-94
2022/09/11 10:13:42;;;;;;;15.70;7.03;;;;;;;18.41;100.00;98487.06;5086626;28;20024;-95
2022/09/11 10:16:26;;;;;;;14.38;6.95;;;;;;;18.96;100.00;98482.84;5086739;28;20068;-94
2022/09/11 10:18:53;;;;;;;16.38;7.50;;;;;;;19.21;100.00;98479.88;5089633;28;20309;-94
2022/09/11 10:21:28;;;;;;;15.10;7.63;;;;;;;19.43;100.00;98475.22;5085849;28;20277;-96
2022/09/11 10:24:01;;;;;;;16.35;8.15;;;;;;;18.92;100.00;98476.84;5086153;28;20048;-95
2022/09/11 10:26:49;;;;;;;18.70;8.93;;;;;;;18.91;100.00;98472.47;5086007;28;20039;-94
2022/09/11 10:29:23;;;;;;;16.85;7.90;;;;;;;18.79;100.00;98470.38;5083089;28;20024;-94
2022/09/11 10:31:52;;;;;;;19.70;9.25;;;;;;;18.93;100.00;98468.84;5083181;28;20461;-95
2022/09/11 10:34:21;;;;;;;18.35;9.13;;;;;;;18.67;100.00;98480.59;5092154;28;20452;-96
2022/09/11 10:37:03;;;;;;;21.92;9.43;;;;;;;19.02;100.00;98480.75;5093025;28;20090;-94
2022/09/11 10:39:33;;;;;;;18.83;9.95;;;;;;;18.83;100.00;98466.66;5086238;28;20446;-95
2022/09/11 10:42:11;;;;;;;21.25;9.95;;;;;;;19.23;100.00;98476.22;5084035;28;20472;-96
2022/09/11 10:44:43;;;;;;;20.45;9.23;;;;;;;18.55;100.00;98486.44;5098506;28;20107;-96
2022/09/11 10:47:24;;;;;;;18.73;9.75;;;;;;;19.00;100.00;98487.03;5083342;28;20055;-96
2022/09/11 10:50:17;;;;;;;19.38;9.20;;;;;;;19.01;100.00;98480.81;5073578;28;20480;-95
2022/09/11 10:53:01;;;;;;;21.00;10.07;;;;;;;17.75;100.00;98481.13;5081931;28;20043;-95
2022/09/11 10:55:39;;;;;;;21.77;10.88;;;;;;;19.01;100.00;98475.53;5083803;28;20132;-96
2022/09/11 10:58:11;;;;;;;20.02;10.98;;;;;;;18.23;100.00;98481.72;5082258;28;20092;-96
2022/09/11 11:00:37;;;;;;;21.60;10.77;;;;;;;18.26;100.00;98470.16;5085092;28;20102;-95
2022/09/11 11:03:16;;;;;;;22.05;11.13;;;;;;;17.99;100.00;98464.34;5081814;28;20086;-94
2022/09/11 11:05:47;;;;;;;21.80;10.35;;;;;;;17.62;100.00;98458.84;5082912;28;20056;-96
2022/09/11 11:08:24;;;;;;;21.98;10.95;;;;;;;17.70;100.00;98453.22;5082381;28;20028;-95
2022/09/11 11:11:01;;;;;;;23.15;11.02;;;;;;;17.85;100.00;98449.06;5083491;28;20021;-95
2022/09/11 11:16:11;;;;;;;22.40;9.95;;;;;;;18.60;100.00;98444.84;5079690;27;20396;-96
2022/09/11 11:18:48;;;;;;;19.25;9.82;;;;;;;18.27;100.00;98445.47;5052356;28;20033;-96
2022/09/11 11:25:36;;;;;;;16.15;9.05;;;;;;;17.76;100.00;98439.78;5123278;27;20659;-96
2022/09/11 11:28:39;;;;;;;17.13;9.00;;;;;;;18.09;100.00;98444.50;5105180;28;20019;-95
2022/09/11 11:31:16;;;;;;;20.63;9.68;;;;;;;18.28;100.00;98431.34;5058346;28;20047;-94
2022/09/11 11:34:04;;;;;;;17.48;8.68;;;;;;;17.97;100.00;98440.66;5043797;28;20031;-94
2022/09/11 11:38:50;;;;;;;18.77;9.65;;;;;;;17.70;100.00;98437.41;5143599;27;20740;-95
2022/09/11 11:41:23;;;;;;;21.20;9.88;;;;;;;17.94;100.00;98439.91;5123180;28;20092;-96
2022/09/11 11:43:54;;;;;;;19.38;9.45;;;;;;;17.84;100.00;98437.69;5124194;28;20020;-96
2022/09/11 11:46:24;;;;;;;20.63;9.60;;;;;;;17.82;100.00;98438.66;5129165;28;20031;-94
2022/09/11 11:49:01;;;;;;;20.23;10.52;;;;;;;17.85;100.00;98436.72;5112213;28;20028;-96
2022/09/11 11:51:33;;;;;;;24.17;10.30;;;;;;;17.73;100.00;98431.97;5123698;28;20027;-96
2022/09/11 11:54:07;;;;;;;21.88;9.95;;;;;;;17.89;100.00;98438.31;5118753;28;20126;-95
2022/09/11 11:56:55;;;;;;;22.88;10.98;;;;;;;18.15;100.00;98438.09;5113539;27;20028;-95
2022/09/11 11:59:50;;;;;;;23.77;9.48;;;;;;;18.25;100.00;98439.41;5120477;28;20071;-95
2022/09/11 12:03:32;;;;;;;19.63;9.13;;;;;;;18.10;100.00;98429.56;5150708;27;20395;-96
2022/09/11 12:05:58;;;;;;;20.40;9.57;;;;;;;18.16;100.00;98431.91;5126654;28;20032;-95
2022/09/11 12:08:27;;;;;;;20.95;9.40;;;;;;;18.62;100.00;98435.06;5118577;27;20039;-95
2022/09/11 12:11:03;;;;;;;21.25;9.68;;;;;;;18.47;100.00;98428.72;5121401;28;20039;-95
2022/09/11 12:13:33;;;;;;;19.80;8.73;;;;;;;18.37;100.00;98423.00;5122592;28;20108;-96
2022/09/11 12:16:16;;;;;;;17.90;8.50;;;;;;;18.21;100.00;98437.84;5120803;28;20065;-95
2022/09/11 12:19:08;;;;;;;19.98;9.60;;;;;;;18.35;100.00;98421.38;5120290;28;20027;-95
2022/09/11 12:24:23;;;;;;;21.80;9.52;;;;;;;18.21;100.00;98417.56;5150371;27;20387;-95
2022/09/11 12:27:37;;;;;;;22.38;9.25;;;;;;;18.24;100.00;98420.06;5116060;27;20027;-94
2022/09/11 12:45:42;;;;;;;18.17;9.65;;;;;;;18.63;100.00;98423.56;6252166;22;20269;-95
2022/09/11 12:48:12;;;;;;;17.15;8.45;;;;;;;18.38;100.00;98422.06;6249300;23;20012;-96
2022/09/11 12:50:38;;;;;;;18.27;9.35;;;;;;;18.32;100.00;98409.16;6259315;22;20003;-96
2022/09/11 12:53:18;;;;;;;21.23;10.23;;;;;;;18.21;100.00;98403.53;6261452;23;20007;-96
2022/09/11 12:59:24;;;;;;;21.23;10.45;;;;;;;18.17;100.00;98400.16;6121494;23;20013;-94
2022/09/11 13:01:51;;;;;;;23.55;10.23;;;;;;;18.57;100.00;98392.19;6121899;23;20110;-94
2022/09/11 13:04:21;;;;;;;20.75;10.48;;;;;;;19.22;100.00;98391.69;6098243;23;20017;-94
2022/09/11 13:07:04;;;;;;;17.02;8.20;;;;;;;19.48;100.00;98387.72;6131613;23;20764;-96
2022/09/11 13:09:48;;;;;;;15.57;7.35;;;;;;;18.99;100.00;98383.13;6110866;23;20005;-96
2022/09/11 13:12:23;;;;;;;18.23;7.93;;;;;;;19.06;100.00;98386.31;6106097;23;20012;-96